Westland, MI (48186)

4:33 PM EDT on September 03, 2015 (GMT -0400)
Garden City Weather | | Change Station
CLOSE
Current Station
Personal Weather Station
Location: Garden City, MI
Elevation: 640 ft
Nearby Weather Stations

Elev 640 ft 42.32 °N, 83.35 °W | Updated 2 seconds ago

Mostly Cloudy
Mostly Cloudy
71.1 °F
Feels Like 71.1 °F
N
0.4
Wind Variable Wind from ENE
Gusts 0.0 mph

Today
High -- | Low -- °F
--% Chance of Precip.
Yesterday
High -- | Low -- °F
Precip. -- in
7:00 AM 8:04 PM
Waning Gibbous, 67% visible
Pressure 29.92 in
Visibility 9.0 miles
Clouds Mostly Cloudy 5000 ft
Overcast 15000 ft
Dew Point 67 °F
Humidity 87%
Rainfall 0.20 in
Snow Depth Not available.
UV 2 out of 12
Pollen 7.20 out of 12
Air Quality Not available.
Flu Activity Not available.
METAR KDTW 031953Z 02007KT 9SM BKN050 OVC150 25/20 A2993 RMK AO2 TSE11RAE36 SLP131 TS MOV E T02500200 PNO $
Pressure 29.92 in
Visibility 9.0 miles
Clouds Mostly Cloudy 5000 ft
Overcast 15000 ft
Dew Point 67 °F
Humidity 87%
Rainfall 0.20 in
Snow Depth Not available.
UV 2 out of 12
Pollen 7.20 out of 12
Air Quality Not available.
Flu Activity Not available.
METAR KDTW 031953Z 02007KT 9SM BKN050 OVC150 25/20 A2993 RMK AO2 TSE11RAE36 SLP131 TS MOV E T02500200 PNO $

10-Day Weather Forecast

×

Almanac

Astronomy

Sep. 03, 2015 Rise Set
Actual Time
Civil Twilight
Nautical Twilight
Astronomical Twilight
Moon
Length of Visible Light
Length of Day
Tomorrow will be .
, % of the Moon is Illuminated

Today's Extremes

State Highs State Lows

Community

WunderPhotos

Upload Photos

1,852,032 photos uploaded!

WunderBlogs® & News

Nearby

Air Quality

  Air Quality AQ Index Pollutant
Not available.

Snow Depth

Station Depth Elevation

Earthquake Activity

City Distance Mag. Time & Date
Minimum magnitude displayed is 2.5.

Coastal Water Temperatures

Place Temperature

Stations

Nearby Weather Stations

Station Location Temp. Windchill Dew Point Humidity Wind Precip. Elev Updated Type